Tamora, Nebraska
Current Conditions -  °F | °C
As of 5:54 PM on Saturday 22 Nov 2014 (Local Time) from KLNK Reporting Station
Overcast Overcast  
Wind Chill: 55°   Ceiling: 1400
Heat Index: 55°   Visibility: 8mi
Dew Point: 50°   Wind: 16mph
Humidity: 83%   Direction: 170°S
Pressure: 29.6"   Gusts: NA
Location:  40.8874°N, 97.126°W
Report Text: KLNK 222354Z 17014KT 8SM OVC014 13/10 A2960 RMK AO2 SLP024 T01280100 10144 20061 58020
Loading
Personal Weather Stations






























Interactive Weather Map New forecast layout! Learn more

10-Day Weather Forecast

Advertisements
Track Severe Weather on mobile